sensor_id;sensor_type;location;lat;lon;timestamp;temperature;humidity
2042;DHT22;1026;51.460;7.252;2023-11-19T00:00:17;8.20;99.90
2042;DHT22;1026;51.460;7.252;2023-11-19T00:02:44;8.10;99.90
2042;DHT22;1026;51.460;7.252;2023-11-19T00:05:18;8.10;99.90
2042;DHT22;1026;51.460;7.252;2023-11-19T00:07:45;8.10;99.90
2042;DHT22;1026;51.460;7.252;2023-11-19T00:10:14;8.10;99.90
2042;DHT22;1026;51.460;7.252;2023-11-19T00:12:51;8.10;99.90
2042;DHT22;1026;51.460;7.252;2023-11-19T00:15:18;8.10;99.90
2042;DHT22;1026;51.460;7.252;2023-11-19T00:17:47;8.10;99.90
2042;DHT22;1026;51.460;7.252;2023-11-19T00:20:22;8.20;99.90
2042;DHT22;1026;51.460;7.252;2023-11-19T00:22:49;8.20;99.90
2042;DHT22;1026;51.460;7.252;2023-11-19T00:25:20;8.20;99.90
2042;DHT22;1026;51.460;7.252;2023-11-19T00:27:57;8.30;99.90
2042;DHT22;1026;51.460;7.252;2023-11-19T00:30:30;8.20;99.90
2042;DHT22;1026;51.460;7.252;2023-11-19T00:32:57;8.20;99.90
2042;DHT22;1026;51.460;7.252;2023-11-19T00:35:24;8.30;99.90
2042;DHT22;1026;51.460;7.252;2023-11-19T00:37:57;8.20;99.90
2042;DHT22;1026;51.460;7.252;2023-11-19T00:40:24;8.20;99.90
2042;DHT22;1026;51.460;7.252;2023-11-19T00:43:04;8.30;99.90
2042;DHT22;1026;51.460;7.252;2023-11-19T00:45:37;8.30;99.90
2042;DHT22;1026;51.460;7.252;2023-11-19T00:48:05;8.30;99.90
2042;DHT22;1026;51.460;7.252;2023-11-19T00:50:32;8.30;99.90
2042;DHT22;1026;51.460;7.252;2023-11-19T00:53:08;8.30;99.90
2042;DHT22;1026;51.460;7.252;2023-11-19T00:55:41;8.40;99.90
2042;DHT22;1026;51.460;7.252;2023-11-19T00:58:12;8.30;99.90
2042;DHT22;1026;51.460;7.252;2023-11-19T01:00:39;8.30;99.90
2042;DHT22;1026;51.460;7.252;2023-11-19T01:03:12;8.30;99.90
2042;DHT22;1026;51.460;7.252;2023-11-19T01:05:40;8.30;99.90
2042;DHT22;1026;51.460;7.252;2023-11-19T01:08:07;8.40;99.90
2042;DHT22;1026;51.460;7.252;2023-11-19T01:10:40;8.40;99.90
2042;DHT22;1026;51.460;7.252;2023-11-19T01:13:14;8.40;99.90
2042;DHT22;1026;51.460;7.252;2023-11-19T01:15:47;8.40;99.90
2042;DHT22;1026;51.460;7.252;2023-11-19T01:18:14;8.40;99.90
2042;DHT22;1026;51.460;7.252;2023-11-19T01:20:41;8.40;99.90
2042;DHT22;1026;51.460;7.252;2023-11-19T01:23:14;8.40;99.90
2042;DHT22;1026;51.460;7.252;2023-11-19T01:25:41;8.40;99.90
2042;DHT22;1026;51.460;7.252;2023-11-19T01:28:14;8.50;99.90
2042;DHT22;1026;51.460;7.252;2023-11-19T01:30:41;8.50;99.90
2042;DHT22;1026;51.460;7.252;2023-11-19T01:33:08;8.50;99.90
2042;DHT22;1026;51.460;7.252;2023-11-19T01:35:41;8.50;99.90
2042;DHT22;1026;51.460;7.252;2023-11-19T01:38:08;8.50;99.90
2042;DHT22;1026;51.460;7.252;2023-11-19T01:40:42;8.50;99.90
2042;DHT22;1026;51.460;7.252;2023-11-19T01:43:09;8.50;99.90
2042;DHT22;1026;51.460;7.252;2023-11-19T01:45:39;8.50;99.90
2042;DHT22;1026;51.460;7.252;2023-11-19T01:48:14;8.50;99.90
2042;DHT22;1026;51.460;7.252;2023-11-19T01:50:41;8.60;99.90
2042;DHT22;1026;51.460;7.252;2023-11-19T01:53:08;8.60;99.90
2042;DHT22;1026;51.460;7.252;2023-11-19T01:55:41;8.60;99.90
2042;DHT22;1026;51.460;7.252;2023-11-19T01:58:15;8.60;99.90
2042;DHT22;1026;51.460;7.252;2023-11-19T02:00:44;8.60;99.90
2042;DHT22;1026;51.460;7.252;2023-11-19T02:03:12;8.60;99.90
2042;DHT22;1026;51.460;7.252;2023-11-19T02:05:48;8.60;99.90
2042;DHT22;1026;51.460;7.252;2023-11-19T02:08:15;8.70;99.90
2042;DHT22;1026;51.460;7.252;2023-11-19T02:10:55;8.70;99.90
2042;DHT22;1026;51.460;7.252;2023-11-19T02:13:29;8.70;99.90
2042;DHT22;1026;51.460;7.252;2023-11-19T02:16:03;8.70;99.90
2042;DHT22;1026;51.460;7.252;2023-11-19T02:18:30;8.70;99.90
2042;DHT22;1026;51.460;7.252;2023-11-19T02:20:58;8.70;99.90
2042;DHT22;1026;51.460;7.252;2023-11-19T02:23:33;8.80;99.90
2042;DHT22;1026;51.460;7.252;2023-11-19T02:26:14;8.80;99.90
2042;DHT22;1026;51.460;7.252;2023-11-19T02:28:51;8.80;99.90
2042;DHT22;1026;51.460;7.252;2023-11-19T02:31:23;8.80;99.90
2042;DHT22;1026;51.460;7.252;2023-11-19T02:33:50;8.80;99.90
2042;DHT22;1026;51.460;7.252;2023-11-19T02:36:17;8.80;99.90
2042;DHT22;1026;51.460;7.252;2023-11-19T02:38:50;8.80;99.90
2042;DHT22;1026;51.460;7.252;2023-11-19T02:41:23;8.80;99.90
2042;DHT22;1026;51.460;7.252;2023-11-19T02:43:56;8.80;99.90
2042;DHT22;1026;51.460;7.252;2023-11-19T02:46:24;8.90;99.90
2042;DHT22;1026;51.460;7.252;2023-11-19T02:48:53;8.90;99.90
2042;DHT22;1026;51.460;7.252;2023-11-19T02:51:26;8.90;99.90
2042;DHT22;1026;51.460;7.252;2023-11-19T02:53:54;8.90;99.90
2042;DHT22;1026;51.460;7.252;2023-11-19T02:56:21;8.90;99.90
2042;DHT22;1026;51.460;7.252;2023-11-19T02:59:01;8.90;99.90
2042;DHT22;1026;51.460;7.252;2023-11-19T03:01:41;8.90;99.90
2042;DHT22;1026;51.460;7.252;2023-11-19T03:04:17;8.90;99.90
2042;DHT22;1026;51.460;7.252;2023-11-19T03:06:53;9.00;99.90
2042;DHT22;1026;51.460;7.252;2023-11-19T03:09:20;8.90;99.90
2042;DHT22;1026;51.460;7.252;2023-11-19T03:12:01;9.00;99.90
2042;DHT22;1026;51.460;7.252;2023-11-19T03:14:34;9.00;99.90
2042;DHT22;1026;51.460;7.252;2023-11-19T03:17:10;9.00;99.90
2042;DHT22;1026;51.460;7.252;2023-11-19T03:19:37;9.00;99.90
2042;DHT22;1026;51.460;7.252;2023-11-19T03:22:11;9.00;99.90
2042;DHT22;1026;51.460;7.252;2023-11-19T03:24:38;9.00;99.90
2042;DHT22;1026;51.460;7.252;2023-11-19T03:27:04;9.00;99.90
2042;DHT22;1026;51.460;7.252;2023-11-19T03:29:39;9.00;99.90
2042;DHT22;1026;51.460;7.252;2023-11-19T03:32:06;9.10;99.90
2042;DHT22;1026;51.460;7.252;2023-11-19T03:34:40;9.10;99.90
2042;DHT22;1026;51.460;7.252;2023-11-19T03:37:13;9.10;99.90
2042;DHT22;1026;51.460;7.252;2023-11-19T03:39:50;9.10;99.90
2042;DHT22;1026;51.460;7.252;2023-11-19T03:42:16;9.10;99.90
2042;DHT22;1026;51.460;7.252;2023-11-19T03:44:45;9.10;99.90
2042;DHT22;1026;51.460;7.252;2023-11-19T03:47:19;9.10;99.90
2042;DHT22;1026;51.460;7.252;2023-11-19T03:49:49;9.10;99.90
2042;DHT22;1026;51.460;7.252;2023-11-19T03:52:17;9.10;99.90
2042;DHT22;1026;51.460;7.252;2023-11-19T03:54:51;9.20;99.90
2042;DHT22;1026;51.460;7.252;2023-11-19T03:57:17;9.20;99.90
2042;DHT22;1026;51.460;7.252;2023-11-19T03:59:52;9.20;99.90
2042;DHT22;1026;51.460;7.252;2023-11-19T04:02:25;9.20;99.90
2042;DHT22;1026;51.460;7.252;2023-11-19T04:04:55;9.20;99.90
2042;DHT22;1026;51.460;7.252;2023-11-19T04:07:22;9.20;99.90
2042;DHT22;1026;51.460;7.252;2023-11-19T04:10:03;9.20;99.90
2042;DHT22;1026;51.460;7.252;2023-11-19T04:12:30;9.20;99.90
2042;DHT22;1026;51.460;7.252;2023-11-19T04:15:03;9.20;99.90
2042;DHT22;1026;51.460;7.252;2023-11-19T04:17:31;9.20;99.90
2042;DHT22;1026;51.460;7.252;2023-11-19T04:19:58;9.20;99.90
2042;DHT22;1026;51.460;7.252;2023-11-19T04:22:32;9.20;99.90
2042;DHT22;1026;51.460;7.252;2023-11-19T04:25:05;9.20;99.90
2042;DHT22;1026;51.460;7.252;2023-11-19T04:27:32;9.20;99.90
2042;DHT22;1026;51.460;7.252;2023-11-19T04:29:59;9.20;99.90
2042;DHT22;1026;51.460;7.252;2023-11-19T04:32:35;9.20;99.90
2042;DHT22;1026;51.460;7.252;2023-11-19T04:35:01;9.20;99.90
2042;DHT22;1026;51.460;7.252;2023-11-19T04:37:35;9.20;99.90
2042;DHT22;1026;51.460;7.252;2023-11-19T04:40:02;9.20;99.90
2042;DHT22;1026;51.460;7.252;2023-11-19T04:42:29;9.20;99.90
2042;DHT22;1026;51.460;7.252;2023-11-19T04:45:03;9.20;99.90
2042;DHT22;1026;51.460;7.252;2023-11-19T04:47:35;9.20;99.90
2042;DHT22;1026;51.460;7.252;2023-11-19T04:50:16;9.20;99.90
2042;DHT22;1026;51.460;7.252;2023-11-19T04:52:43;9.30;99.90
2042;DHT22;1026;51.460;7.252;2023-11-19T04:55:12;9.20;99.90
2042;DHT22;1026;51.460;7.252;2023-11-19T04:57:47;9.20;99.90
2042;DHT22;1026;51.460;7.252;2023-11-19T05:00:14;9.20;99.90
2042;DHT22;1026;51.460;7.252;2023-11-19T05:02:49;9.30;99.90
2042;DHT22;1026;51.460;7.252;2023-11-19T05:05:16;9.30;99.90
2042;DHT22;1026;51.460;7.252;2023-11-19T05:07:44;9.30;99.90
2042;DHT22;1026;51.460;7.252;2023-11-19T05:10:24;9.30;99.90
2042;DHT22;1026;51.460;7.252;2023-11-19T05:12:52;9.30;99.90
2042;DHT22;1026;51.460;7.252;2023-11-19T05:15:25;9.30;99.90
2042;DHT22;1026;51.460;7.252;2023-11-19T05:17:52;9.30;99.90
2042;DHT22;1026;51.460;7.252;2023-11-19T05:20:19;9.30;99.90
2042;DHT22;1026;51.460;7.252;2023-11-19T05:22:52;9.30;99.90
2042;DHT22;1026;51.460;7.252;2023-11-19T05:25:19;9.30;99.90
2042;DHT22;1026;51.460;7.252;2023-11-19T05:27:46;9.30;99.90
2042;DHT22;1026;51.460;7.252;2023-11-19T05:30:20;9.40;99.90
2042;DHT22;1026;51.460;7.252;2023-11-19T05:32:46;9.30;99.90
2042;DHT22;1026;51.460;7.252;2023-11-19T05:35:14;9.30;99.90
2042;DHT22;1026;51.460;7.252;2023-11-19T05:37:48;9.30;99.90
2042;DHT22;1026;51.460;7.252;2023-11-19T05:40:16;9.30;99.90
2042;DHT22;1026;51.460;7.252;2023-11-19T05:42:44;9.30;99.90
2042;DHT22;1026;51.460;7.252;2023-11-19T05:45:18;9.40;99.90
2042;DHT22;1026;51.460;7.252;2023-11-19T05:47:45;9.30;99.90
2042;DHT22;1026;51.460;7.252;2023-11-19T05:50:12;9.30;99.90
2042;DHT22;1026;51.460;7.252;2023-11-19T05:52:46;9.30;99.90
2042;DHT22;1026;51.460;7.252;2023-11-19T05:55:12;9.30;99.90
2042;DHT22;1026;51.460;7.252;2023-11-19T05:57:40;9.30;99.90
2042;DHT22;1026;51.460;7.252;2023-11-19T06:00:14;9.30;99.90
2042;DHT22;1026;51.460;7.252;2023-11-19T06:02:42;9.40;99.90
2042;DHT22;1026;51.460;7.252;2023-11-19T06:05:09;9.40;99.90
2042;DHT22;1026;51.460;7.252;2023-11-19T06:07:43;9.40;99.90
2042;DHT22;1026;51.460;7.252;2023-11-19T06:10:10;9.40;99.90
2042;DHT22;1026;51.460;7.252;2023-11-19T06:12:44;9.40;99.90
2042;DHT22;1026;51.460;7.252;2023-11-19T06:15:28;9.40;99.90
2042;DHT22;1026;51.460;7.252;2023-11-19T06:18:02;9.40;99.90
2042;DHT22;1026;51.460;7.252;2023-11-19T06:20:30;9.40;99.90
2042;DHT22;1026;51.460;7.252;2023-11-19T06:23:09;9.40;99.90
2042;DHT22;1026;51.460;7.252;2023-11-19T06:25:43;9.40;99.90
2042;DHT22;1026;51.460;7.252;2023-11-19T06:28:10;9.40;99.90
2042;DHT22;1026;51.460;7.252;2023-11-19T06:30:43;9.40;99.90
2042;DHT22;1026;51.460;7.252;2023-11-19T06:33:13;9.40;99.90
2042;DHT22;1026;51.460;7.252;2023-11-19T06:35:41;9.40;99.90
2042;DHT22;1026;51.460;7.252;2023-11-19T06:38:14;9.40;99.90
2042;DHT22;1026;51.460;7.252;2023-11-19T06:40:41;9.40;99.90
2042;DHT22;1026;51.460;7.252;2023-11-19T06:43:08;9.40;99.90
2042;DHT22;1026;51.460;7.252;2023-11-19T06:45:44;9.40;99.90
2042;DHT22;1026;51.460;7.252;2023-11-19T06:48:17;9.40;99.90
2042;DHT22;1026;51.460;7.252;2023-11-19T06:50:44;9.40;99.90
2042;DHT22;1026;51.460;7.252;2023-11-19T06:53:10;9.40;99.90
2042;DHT22;1026;51.460;7.252;2023-11-19T06:55:44;9.40;99.90
2042;DHT22;1026;51.460;7.252;2023-11-19T06:58:11;9.40;99.90
2042;DHT22;1026;51.460;7.252;2023-11-19T07:00:45;9.40;99.90
2042;DHT22;1026;51.460;7.252;2023-11-19T07:03:13;9.40;99.90
2042;DHT22;1026;51.460;7.252;2023-11-19T07:05:41;9.40;99.90
2042;DHT22;1026;51.460;7.252;2023-11-19T07:08:15;9.40;99.90
2042;DHT22;1026;51.460;7.252;2023-11-19T07:10:42;9.40;99.90
2042;DHT22;1026;51.460;7.252;2023-11-19T07:13:22;9.40;99.90
2042;DHT22;1026;51.460;7.252;2023-11-19T07:15:49;9.40;99.90
2042;DHT22;1026;51.460;7.252;2023-11-19T07:18:16;9.40;99.90
2042;DHT22;1026;51.460;7.252;2023-11-19T07:20:49;9.40;99.90
2042;DHT22;1026;51.460;7.252;2023-11-19T07:23:16;9.40;99.90
2042;DHT22;1026;51.460;7.252;2023-11-19T07:25:43;9.40;99.90
2042;DHT22;1026;51.460;7.252;2023-11-19T07:28:20;9.40;99.90
2042;DHT22;1026;51.460;7.252;2023-11-19T07:30:47;9.40;99.90
2042;DHT22;1026;51.460;7.252;2023-11-19T07:33:20;9.40;99.90
2042;DHT22;1026;51.460;7.252;2023-11-19T07:35:47;9.40;99.90
2042;DHT22;1026;51.460;7.252;2023-11-19T07:38:14;9.40;99.90
2042;DHT22;1026;51.460;7.252;2023-11-19T07:40:48;9.40;99.90
2042;DHT22;1026;51.460;7.252;2023-11-19T07:43:18;9.40;99.90
2042;DHT22;1026;51.460;7.252;2023-11-19T07:45:51;9.40;99.90
2042;DHT22;1026;51.460;7.252;2023-11-19T07:48:24;9.40;99.90
2042;DHT22;1026;51.460;7.252;2023-11-19T07:50:52;9.40;99.90
2042;DHT22;1026;51.460;7.252;2023-11-19T07:53:20;9.40;99.90
2042;DHT22;1026;51.460;7.252;2023-11-19T07:56:08;9.40;99.90
2042;DHT22;1026;51.460;7.252;2023-11-19T07:58:49;9.40;99.90
2042;DHT22;1026;51.460;7.252;2023-11-19T08:01:22;9.40;99.90
2042;DHT22;1026;51.460;7.252;2023-11-19T08:03:50;9.40;99.90
2042;DHT22;1026;51.460;7.252;2023-11-19T08:06:20;9.40;99.90
2042;DHT22;1026;51.460;7.252;2023-11-19T08:08:53;9.40;99.90
2042;DHT22;1026;51.460;7.252;2023-11-19T08:11:27;9.40;99.90
2042;DHT22;1026;51.460;7.252;2023-11-19T08:14:00;9.40;99.90
2042;DHT22;1026;51.460;7.252;2023-11-19T08:16:27;9.40;99.90
2042;DHT22;1026;51.460;7.252;2023-11-19T08:18:54;9.40;99.90
2042;DHT22;1026;51.460;7.252;2023-11-19T08:21:27;9.40;99.90
2042;DHT22;1026;51.460;7.252;2023-11-19T08:23:54;9.40;99.90
2042;DHT22;1026;51.460;7.252;2023-11-19T08:26:33;9.40;99.90
2042;DHT22;1026;51.460;7.252;2023-11-19T08:29:07;9.40;99.90
2042;DHT22;1026;51.460;7.252;2023-11-19T08:31:34;9.40;99.90
2042;DHT22;1026;51.460;7.252;2023-11-19T08:34:01;9.40;99.90
2042;DHT22;1026;51.460;7.252;2023-11-19T08:36:35;9.40;99.90
2042;DHT22;1026;51.460;7.252;2023-11-19T08:39:03;9.40;99.90
2042;DHT22;1026;51.460;7.252;2023-11-19T08:41:30;9.40;99.90
2042;DHT22;1026;51.460;7.252;2023-11-19T08:44:03;9.40;99.90
2042;DHT22;1026;51.460;7.252;2023-11-19T08:46:30;9.40;99.90
2042;DHT22;1026;51.460;7.252;2023-11-19T08:48:57;9.40;99.90
2042;DHT22;1026;51.460;7.252;2023-11-19T08:51:31;9.40;99.90
2042;DHT22;1026;51.460;7.252;2023-11-19T08:54:04;9.40;99.90
2042;DHT22;1026;51.460;7.252;2023-11-19T08:56:31;9.40;99.90
2042;DHT22;1026;51.460;7.252;2023-11-19T08:58:59;9.40;99.90
2042;DHT22;1026;51.460;7.252;2023-11-19T09:01:33;9.40;99.90
2042;DHT22;1026;51.460;7.252;2023-11-19T09:04:00;9.40;99.90
2042;DHT22;1026;51.460;7.252;2023-11-19T09:06:34;9.40;99.90
2042;DHT22;1026;51.460;7.252;2023-11-19T09:09:02;9.40;99.90
2042;DHT22;1026;51.460;7.252;2023-11-19T09:11:36;9.40;99.90
2042;DHT22;1026;51.460;7.252;2023-11-19T09:14:09;9.40;99.90
2042;DHT22;1026;51.460;7.252;2023-11-19T09:16:43;9.40;99.90
2042;DHT22;1026;51.460;7.252;2023-11-19T09:19:16;9.40;99.90
2042;DHT22;1026;51.460;7.252;2023-11-19T09:21:44;9.60;99.90
2042;DHT22;1026;51.460;7.252;2023-11-19T09:24:18;9.60;99.90
2042;DHT22;1026;51.460;7.252;2023-11-19T09:26:45;9.60;99.90
2042;DHT22;1026;51.460;7.252;2023-11-19T09:29:12;9.60;99.90
2042;DHT22;1026;51.460;7.252;2023-11-19T09:31:47;9.50;99.90
2042;DHT22;1026;51.460;7.252;2023-11-19T09:34:20;9.50;99.90
2042;DHT22;1026;51.460;7.252;2023-11-19T09:36:53;9.50;99.90
2042;DHT22;1026;51.460;7.252;2023-11-19T09:39:20;9.50;99.90
2042;DHT22;1026;51.460;7.252;2023-11-19T09:41:54;9.50;99.90
2042;DHT22;1026;51.460;7.252;2023-11-19T09:44:27;9.50;99.90
2042;DHT22;1026;51.460;7.252;2023-11-19T09:46:55;9.50;99.90
2042;DHT22;1026;51.460;7.252;2023-11-19T09:49:25;9.50;99.90
2042;DHT22;1026;51.460;7.252;2023-11-19T09:52:02;9.50;99.90
2042;DHT22;1026;51.460;7.252;2023-11-19T09:54:29;9.60;99.90
2042;DHT22;1026;51.460;7.252;2023-11-19T09:57:04;9.60;99.90
2042;DHT22;1026;51.460;7.252;2023-11-19T09:59:34;9.60;99.90
2042;DHT22;1026;51.460;7.252;2023-11-19T10:02:08;9.60;99.90
2042;DHT22;1026;51.460;7.252;2023-11-19T10:04:38;9.60;99.90
2042;DHT22;1026;51.460;7.252;2023-11-19T10:07:06;9.70;99.90
2042;DHT22;1026;51.460;7.252;2023-11-19T10:09:47;9.60;99.90
2042;DHT22;1026;51.460;7.252;2023-11-19T10:12:28;9.60;99.90
2042;DHT22;1026;51.460;7.252;2023-11-19T10:15:01;9.60;99.90
2042;DHT22;1026;51.460;7.252;2023-11-19T10:17:28;9.60;99.90
2042;DHT22;1026;51.460;7.252;2023-11-19T10:20:06;9.60;99.90
2042;DHT22;1026;51.460;7.252;2023-11-19T10:22:37;9.60;99.90
2042;DHT22;1026;51.460;7.252;2023-11-19T10:25:26;9.70;99.90
2042;DHT22;1026;51.460;7.252;2023-11-19T10:28:00;9.70;99.90
2042;DHT22;1026;51.460;7.252;2023-11-19T10:30:28;9.70;99.90
2042;DHT22;1026;51.460;7.252;2023-11-19T10:33:09;9.70;99.90
2042;DHT22;1026;51.460;7.252;2023-11-19T10:36:09;9.70;99.90
2042;DHT22;1026;51.460;7.252;2023-11-19T10:38:36;9.70;99.90
2042;DHT22;1026;51.460;7.252;2023-11-19T10:41:10;9.70;99.90
2042;DHT22;1026;51.460;7.252;2023-11-19T10:43:44;9.70;99.90
2042;DHT22;1026;51.460;7.252;2023-11-19T10:46:20;9.70;99.90
2042;DHT22;1026;51.460;7.252;2023-11-19T10:48:50;9.70;99.90
2042;DHT22;1026;51.460;7.252;2023-11-19T10:55:28;9.80;99.90
2042;DHT22;1026;51.460;7.252;2023-11-19T10:58:00;9.80;99.90
2042;DHT22;1026;51.460;7.252;2023-11-19T11:00:56;9.80;99.90
2042;DHT22;1026;51.460;7.252;2023-11-19T11:03:31;9.80;99.90
2042;DHT22;1026;51.460;7.252;2023-11-19T11:06:06;9.80;99.90
2042;DHT22;1026;51.460;7.252;2023-11-19T11:08:40;9.80;99.90
2042;DHT22;1026;51.460;7.252;2023-11-19T11:11:15;9.80;99.90
2042;DHT22;1026;51.460;7.252;2023-11-19T11:13:44;9.80;99.90
2042;DHT22;1026;51.460;7.252;2023-11-19T11:16:19;9.80;99.90
2042;DHT22;1026;51.460;7.252;2023-11-19T11:18:53;9.80;99.90
2042;DHT22;1026;51.460;7.252;2023-11-19T11:21:58;9.90;99.90
2042;DHT22;1026;51.460;7.252;2023-11-19T11:25:04;9.90;99.90
2042;DHT22;1026;51.460;7.252;2023-11-19T11:28:08;9.90;99.90
2042;DHT22;1026;51.460;7.252;2023-11-19T11:30:55;9.90;99.90
2042;DHT22;1026;51.460;7.252;2023-11-19T11:37:10;9.90;99.90
2042;DHT22;1026;51.460;7.252;2023-11-19T11:39:46;9.90;99.90
2042;DHT22;1026;51.460;7.252;2023-11-19T11:42:38;9.90;99.90
2042;DHT22;1026;51.460;7.252;2023-11-19T11:45:13;10.00;99.90
2042;DHT22;1026;51.460;7.252;2023-11-19T11:48:04;10.00;99.90
2042;DHT22;1026;51.460;7.252;2023-11-19T11:50:56;10.00;99.90
2042;DHT22;1026;51.460;7.252;2023-11-19T11:53:25;10.00;99.90
2042;DHT22;1026;51.460;7.252;2023-11-19T11:56:33;10.00;99.90
2042;DHT22;1026;51.460;7.252;2023-11-19T11:59:19;10.00;99.90
2042;DHT22;1026;51.460;7.252;2023-11-19T12:02:16;10.00;99.90
2042;DHT22;1026;51.460;7.252;2023-11-19T12:04:52;10.10;99.90
2042;DHT22;1026;51.460;7.252;2023-11-19T12:07:25;10.00;99.90
2042;DHT22;1026;51.460;7.252;2023-11-19T12:09:56;10.00;99.90
2042;DHT22;1026;51.460;7.252;2023-11-19T12:13:03;10.10;99.90
2042;DHT22;1026;51.460;7.252;2023-11-19T12:15:31;10.10;99.90
2042;DHT22;1026;51.460;7.252;2023-11-19T12:18:05;10.10;99.90
2042;DHT22;1026;51.460;7.252;2023-11-19T12:20:33;10.10;99.90
2042;DHT22;1026;51.460;7.252;2023-11-19T12:23:04;10.10;99.90
2042;DHT22;1026;51.460;7.252;2023-11-19T12:25:38;10.10;99.90
2042;DHT22;1026;51.460;7.252;2023-11-19T12:28:05;10.10;99.90
2042;DHT22;1026;51.460;7.252;2023-11-19T12:31:09;10.10;99.90
2042;DHT22;1026;51.460;7.252;2023-11-19T12:33:42;10.10;99.90
2042;DHT22;1026;51.460;7.252;2023-11-19T12:36:16;10.10;99.90
2042;DHT22;1026;51.460;7.252;2023-11-19T12:38:44;10.10;99.90
2042;DHT22;1026;51.460;7.252;2023-11-19T12:41:12;10.10;99.90
2042;DHT22;1026;51.460;7.252;2023-11-19T12:43:46;10.10;99.90
2042;DHT22;1026;51.460;7.252;2023-11-19T12:46:23;10.10;99.90
2042;DHT22;1026;51.460;7.252;2023-11-19T12:48:56;10.20;99.90
2042;DHT22;1026;51.460;7.252;2023-11-19T12:51:31;10.20;99.90
2042;DHT22;1026;51.460;7.252;2023-11-19T12:54:12;10.20;99.90
2042;DHT22;1026;51.460;7.252;2023-11-19T12:56:55;10.20;99.90
2042;DHT22;1026;51.460;7.252;2023-11-19T12:59:28;10.20;99.90
2042;DHT22;1026;51.460;7.252;2023-11-19T13:01:59;10.20;99.90
2042;DHT22;1026;51.460;7.252;2023-11-19T13:04:30;10.20;99.90
2042;DHT22;1026;51.460;7.252;2023-11-19T13:07:06;10.20;99.90
2042;DHT22;1026;51.460;7.252;2023-11-19T13:09:34;10.20;99.90
2042;DHT22;1026;51.460;7.252;2023-11-19T13:12:12;10.20;99.90
2042;DHT22;1026;51.460;7.252;2023-11-19T13:14:46;10.20;99.90
2042;DHT22;1026;51.460;7.252;2023-11-19T13:17:15;10.20;99.90
2042;DHT22;1026;51.460;7.252;2023-11-19T13:19:42;10.20;99.90
2042;DHT22;1026;51.460;7.252;2023-11-19T13:22:16;10.30;99.90
2042;DHT22;1026;51.460;7.252;2023-11-19T13:24:43;10.20;99.90
2042;DHT22;1026;51.460;7.252;2023-11-19T13:27:17;10.20;99.90
2042;DHT22;1026;51.460;7.252;2023-11-19T13:29:50;10.20;99.90
2042;DHT22;1026;51.460;7.252;2023-11-19T13:32:17;10.20;99.90
2042;DHT22;1026;51.460;7.252;2023-11-19T13:34:50;10.20;99.90
2042;DHT22;1026;51.460;7.252;2023-11-19T13:37:18;10.20;99.90
2042;DHT22;1026;51.460;7.252;2023-11-19T13:39:51;10.20;99.90
2042;DHT22;1026;51.460;7.252;2023-11-19T13:42:19;10.20;99.90
2042;DHT22;1026;51.460;7.252;2023-11-19T13:44:53;10.20;99.90
2042;DHT22;1026;51.460;7.252;2023-11-19T13:47:22;10.20;99.90
2042;DHT22;1026;51.460;7.252;2023-11-19T13:49:56;10.20;99.90
2042;DHT22;1026;51.460;7.252;2023-11-19T13:52:23;10.20;99.90
2042;DHT22;1026;51.460;7.252;2023-11-19T13:55:08;10.20;99.90
2042;DHT22;1026;51.460;7.252;2023-11-19T13:57:42;10.20;99.90
2042;DHT22;1026;51.460;7.252;2023-11-19T14:00:17;10.20;99.90
2042;DHT22;1026;51.460;7.252;2023-11-19T14:02:51;10.20;99.90
2042;DHT22;1026;51.460;7.252;2023-11-19T14:05:19;10.20;99.90
2042;DHT22;1026;51.460;7.252;2023-11-19T14:08:04;10.30;99.90
2042;DHT22;1026;51.460;7.252;2023-11-19T14:10:52;10.20;99.90
2042;DHT22;1026;51.460;7.252;2023-11-19T14:13:23;10.20;99.90
2042;DHT22;1026;51.460;7.252;2023-11-19T14:15:56;10.20;99.90
2042;DHT22;1026;51.460;7.252;2023-11-19T14:18:33;10.30;99.90
2042;DHT22;1026;51.460;7.252;2023-11-19T14:21:08;10.20;99.90
2042;DHT22;1026;51.460;7.252;2023-11-19T14:23:35;10.20;99.90
2042;DHT22;1026;51.460;7.252;2023-11-19T14:26:09;10.20;99.90
2042;DHT22;1026;51.460;7.252;2023-11-19T14:28:35;10.30;99.90
2042;DHT22;1026;51.460;7.252;2023-11-19T14:31:21;10.30;99.90
2042;DHT22;1026;51.460;7.252;2023-11-19T14:33:59;10.30;99.90
2042;DHT22;1026;51.460;7.252;2023-11-19T14:36:26;10.30;99.90
2042;DHT22;1026;51.460;7.252;2023-11-19T14:38:54;10.20;99.90
2042;DHT22;1026;51.460;7.252;2023-11-19T14:41:27;10.30;99.90
2042;DHT22;1026;51.460;7.252;2023-11-19T14:43:54;10.30;99.90
2042;DHT22;1026;51.460;7.252;2023-11-19T14:46:27;10.30;99.90
2042;DHT22;1026;51.460;7.252;2023-11-19T14:48:59;10.30;99.90
2042;DHT22;1026;51.460;7.252;2023-11-19T14:51:27;10.30;99.90
2042;DHT22;1026;51.460;7.252;2023-11-19T14:54:11;10.30;99.90
2042;DHT22;1026;51.460;7.252;2023-11-19T14:56:51;10.30;99.90
2042;DHT22;1026;51.460;7.252;2023-11-19T14:59:26;10.30;99.90
2042;DHT22;1026;51.460;7.252;2023-11-19T15:01:58;10.30;99.90
2042;DHT22;1026;51.460;7.252;2023-11-19T15:04:31;10.30;99.90
2042;DHT22;1026;51.460;7.252;2023-11-19T15:06:59;10.20;99.90
2042;DHT22;1026;51.460;7.252;2023-11-19T15:09:26;10.30;99.90
2042;DHT22;1026;51.460;7.252;2023-11-19T15:11:59;10.30;99.90
2042;DHT22;1026;51.460;7.252;2023-11-19T15:14:26;10.20;99.90
2042;DHT22;1026;51.460;7.252;2023-11-19T15:17:00;10.20;99.90
2042;DHT22;1026;51.460;7.252;2023-11-19T15:19:27;10.20;99.90
2042;DHT22;1026;51.460;7.252;2023-11-19T15:22:00;10.20;99.90
2042;DHT22;1026;51.460;7.252;2023-11-19T15:24:37;10.20;99.90
2042;DHT22;1026;51.460;7.252;2023-11-19T15:27:06;10.20;99.90
2042;DHT22;1026;51.460;7.252;2023-11-19T15:29:36;10.20;99.90
2042;DHT22;1026;51.460;7.252;2023-11-19T15:32:16;10.20;99.90
2042;DHT22;1026;51.460;7.252;2023-11-19T15:34:53;10.20;99.90
2042;DHT22;1026;51.460;7.252;2023-11-19T15:37:33;10.20;99.90
2042;DHT22;1026;51.460;7.252;2023-11-19T15:40:00;10.30;99.90
2042;DHT22;1026;51.460;7.252;2023-11-19T15:42:54;10.30;99.90
2042;DHT22;1026;51.460;7.252;2023-11-19T15:45:31;10.20;99.90
2042;DHT22;1026;51.460;7.252;2023-11-19T15:48:05;10.20;99.90
2042;DHT22;1026;51.460;7.252;2023-11-19T15:50:32;10.20;99.90
2042;DHT22;1026;51.460;7.252;2023-11-19T15:52:59;10.20;99.90
2042;DHT22;1026;51.460;7.252;2023-11-19T15:55:48;10.20;99.90
2042;DHT22;1026;51.460;7.252;2023-11-19T15:58:22;10.20;99.90
2042;DHT22;1026;51.460;7.252;2023-11-19T16:00:56;10.20;99.90
2042;DHT22;1026;51.460;7.252;2023-11-19T16:03:24;10.20;99.90
2042;DHT22;1026;51.460;7.252;2023-11-19T16:06:16;10.20;99.90
2042;DHT22;1026;51.460;7.252;2023-11-19T16:08:45;10.20;99.90
2042;DHT22;1026;51.460;7.252;2023-11-19T16:11:23;10.20;99.90
2042;DHT22;1026;51.460;7.252;2023-11-19T16:13:50;10.20;99.90
2042;DHT22;1026;51.460;7.252;2023-11-19T16:16:17;10.20;99.90
2042;DHT22;1026;51.460;7.252;2023-11-19T16:18:51;10.20;99.90
2042;DHT22;1026;51.460;7.252;2023-11-19T16:21:24;10.20;99.90
2042;DHT22;1026;51.460;7.252;2023-11-19T16:24:19;10.20;99.90
2042;DHT22;1026;51.460;7.252;2023-11-19T16:26:52;10.20;99.90
2042;DHT22;1026;51.460;7.252;2023-11-19T16:29:25;10.20;99.90
2042;DHT22;1026;51.460;7.252;2023-11-19T16:31:52;10.20;99.90
2042;DHT22;1026;51.460;7.252;2023-11-19T16:34:26;10.20;99.90
2042;DHT22;1026;51.460;7.252;2023-11-19T16:36:53;10.20;99.90
2042;DHT22;1026;51.460;7.252;2023-11-19T16:39:26;10.20;99.90
2042;DHT22;1026;51.460;7.252;2023-11-19T16:41:53;10.20;99.90
2042;DHT22;1026;51.460;7.252;2023-11-19T16:44:26;10.20;99.90
2042;DHT22;1026;51.460;7.252;2023-11-19T16:46:53;10.20;99.90
2042;DHT22;1026;51.460;7.252;2023-11-19T16:49:20;10.20;99.90
2042;DHT22;1026;51.460;7.252;2023-11-19T16:51:53;10.20;99.90
2042;DHT22;1026;51.460;7.252;2023-11-19T16:54:27;10.20;99.90